Time;durP1;ratioP1;P1;durP2;ratioP2;P2;SDS_P1;SDS_P2;PMS_P1;PMS_P2;Temp;Humidity;BMP_temperature;BMP_pressure;BME280_temperature;BME280_humidity;BME280_pressure;Samples;Min_cycle;Max_cycle;Signal;HPM_P1;HPM_P2
2022/01/15 00:01:33;;;;;;;72.93;56.75;;;17.70;54.10;;;;;;5011799;27;95113;-73
2022/01/15 00:03:59;;;;;;;72.00;56.08;;;17.60;54.10;;;;;;5007937;27;95562;-74
2022/01/15 00:06:24;;;;;;;73.40;56.20;;;17.60;54.50;;;;;;5013889;27;95362;-73
2022/01/15 00:08:50;;;;;;;71.75;56.20;;;17.60;54.10;;;;;;5011802;27;95824;-74
2022/01/15 00:11:16;;;;;;;73.47;56.78;;;17.60;54.10;;;;;;4991961;27;94948;-73
2022/01/15 00:13:44;;;;;;;70.28;55.45;;;17.60;54.00;;;;;;5009753;27;94424;-74
2022/01/15 00:16:14;;;;;;;72.45;56.15;;;17.60;54.10;;;;;;4985854;27;97219;-74
2022/01/15 00:18:47;;;;;;;72.60;56.00;;;17.50;54.20;;;;;;4993837;27;96288;-74
2022/01/15 00:21:14;;;;;;;72.00;55.80;;;17.50;53.90;;;;;;3540701;27;10121339;-74
2022/01/15 00:23:41;;;;;;;74.35;56.08;;;17.50;54.10;;;;;;1698101;27;10096816;-73
2022/01/15 00:26:07;;;;;;;72.45;56.30;;;17.50;54.10;;;;;;4999993;27;97722;-74
2022/01/15 00:28:32;;;;;;;71.20;56.00;;;17.50;54.10;;;;;;5011806;27;97760;-74
2022/01/15 00:30:58;;;;;;;71.65;55.38;;;17.50;53.90;;;;;;4991316;27;97483;-74
2022/01/15 00:33:25;;;;;;;73.10;56.50;;;17.50;54.00;;;;;;5001769;27;96826;-74
2022/01/15 00:35:52;;;;;;;71.30;55.28;;;17.50;54.10;;;;;;4995686;27;95723;-74
2022/01/15 00:38:18;;;;;;;69.95;55.13;;;17.50;53.90;;;;;;5018364;27;95194;-73
2022/01/15 00:40:43;;;;;;;68.97;54.95;;;17.40;54.10;;;;;;5012007;27;95834;-74
2022/01/15 00:43:09;;;;;;;71.43;55.05;;;17.40;53.80;;;;;;5011740;27;96427;-73
2022/01/15 00:45:35;;;;;;;71.68;55.38;;;17.40;54.10;;;;;;4989064;28;96044;-74
2022/01/15 00:48:02;;;;;;;70.35;55.13;;;17.40;53.80;;;;;;5005484;27;96907;-73
2022/01/15 00:50:28;;;;;;;70.72;55.03;;;17.40;54.10;;;;;;5002302;27;99991;-74
2022/01/15 00:52:53;;;;;;;69.55;55.08;;;17.40;53.90;;;;;;5009556;27;96065;-73
2022/01/15 00:55:20;;;;;;;70.97;55.83;;;17.30;54.00;;;;;;5005343;27;95046;-74
2022/01/15 00:57:46;;;;;;;71.38;55.83;;;17.30;54.30;;;;;;4999467;27;95572;-74
2022/01/15 01:00:17;;;;;;;68.07;54.60;;;17.40;54.10;;;;;;5000040;27;95174;-74
2022/01/15 01:02:43;;;;;;;;;;;17.30;53.80;;;;;;4994923;27;94918;-74
2022/01/15 01:05:10;;;;;;;68.70;54.42;;;17.30;54.00;;;;;;5004666;27;94577;-74
2022/01/15 01:07:35;;;;;;;68.72;54.40;;;17.30;53.80;;;;;;4992574;27;96954;-73
2022/01/15 01:23:20;;;;;;;70.87;55.53;;;17.30;54.20;;;;;;5007053;27;95446;-73
2022/01/15 01:25:49;;;;;;;68.85;54.95;;;17.20;54.20;;;;;;5011967;27;94611;-74
2022/01/15 01:28:25;;;;;;;71.28;55.85;;;17.20;54.10;;;;;;4994192;27;94612;-74
2022/01/15 01:31:00;;;;;;;68.78;54.50;;;17.20;54.20;;;;;;4989612;27;97561;-74
2022/01/15 01:38:52;;;;;;;68.93;54.55;;;17.20;54.20;;;;;;5011034;27;95331;-74
2022/01/15 01:41:20;;;;;;;71.40;54.85;;;17.20;54.20;;;;;;5011743;27;94915;-73
2022/01/15 01:43:52;;;;;;;68.22;54.50;;;17.10;54.10;;;;;;4985673;27;96274;-73
2022/01/15 01:48:55;;;;;;;71.38;55.88;;;17.10;54.20;;;;;;5006427;27;94849;-74
2022/01/15 01:51:26;;;;;;;68.93;54.53;;;17.20;54.60;;;;;;5002738;27;94911;-73
2022/01/15 01:53:53;;;;;;;68.20;54.10;;;17.10;54.50;;;;;;5015063;27;94790;-74
2022/01/15 01:56:20;;;;;;;68.55;54.53;;;17.10;53.80;;;;;;5011240;27;96324;-74
2022/01/15 01:58:46;;;;;;;72.63;55.65;;;17.10;54.10;;;;;;5014152;27;95025;-74
2022/01/15 02:01:12;;;;;;;67.22;53.95;;;17.00;54.20;;;;;;5004853;27;102972;-74
2022/01/15 02:03:38;;;;;;;69.57;54.13;;;17.00;54.90;;;;;;5013164;27;95024;-74
2022/01/15 02:06:04;;;;;;;67.70;54.38;;;17.10;54.20;;;;;;4997358;27;103099;-74
2022/01/15 02:08:34;;;;;;;68.63;54.42;;;17.00;54.30;;;;;;5001470;27;96910;-73
2022/01/15 02:11:03;;;;;;;69.13;54.45;;;17.00;54.30;;;;;;4998022;27;97350;-73
2022/01/15 02:13:29;;;;;;;69.55;55.13;;;17.00;54.20;;;;;;5006585;27;96297;-73
2022/01/15 02:15:57;;;;;;;73.18;55.83;;;17.00;54.50;;;;;;5007953;27;95443;-73
2022/01/15 02:18:24;;;;;;;68.93;54.33;;;17.00;54.20;;;;;;5001417;27;94638;-74
2022/01/15 02:23:35;;;;;;;70.40;55.08;;;17.00;54.60;;;;;;5011617;27;95825;-74
2022/01/15 02:26:06;;;;;;;68.55;54.55;;;17.00;54.50;;;;;;5004938;27;97578;-74
2022/01/15 02:28:40;;;;;;;71.90;55.33;;;16.90;54.40;;;;;;5008934;27;95571;-73
2022/01/15 02:31:10;;;;;;;69.50;54.75;;;16.90;54.50;;;;;;4994072;27;96347;-74
2022/01/15 02:33:38;;;;;;;68.07;54.50;;;16.90;54.60;;;;;;5012135;27;94858;-73
2022/01/15 02:36:06;;;;;;;71.57;55.58;;;17.00;54.50;;;;;;5008156;27;95305;-73
2022/01/15 02:38:33;;;;;;;69.28;54.65;;;16.90;54.40;;;;;;4992822;27;95842;-73
2022/01/15 02:40:59;;;;;;;71.68;55.65;;;16.90;54.30;;;;;;5008254;27;96041;-74
2022/01/15 02:43:32;;;;;;;69.45;54.70;;;16.90;54.80;;;;;;5015418;27;93961;-74
2022/01/15 02:46:07;;;;;;;71.05;55.60;;;16.90;55.00;;;;;;5011888;27;95111;-74
2022/01/15 02:48:33;;;;;;;68.47;54.53;;;16.90;54.50;;;;;;5014785;27;95247;-74
2022/01/15 02:50:59;;;;;;;67.13;54.03;;;16.90;54.40;;;;;;5008952;27;96472;-73
2022/01/15 02:53:24;;;;;;;66.82;53.90;;;16.90;54.40;;;;;;5009269;27;95574;-74
2022/01/15 02:55:53;;;;;;;68.55;54.55;;;16.90;54.50;;;;;;5010152;27;94839;-74
2022/01/15 02:58:21;;;;;;;68.78;54.83;;;16.90;54.60;;;;;;5015684;27;96696;-74
2022/01/15 03:00:49;;;;;;;69.18;54.72;;;16.90;54.40;;;;;;5012947;27;95965;-74
2022/01/15 03:03:14;;;;;;;72.75;54.97;;;16.90;54.40;;;;;;5012793;27;95556;-74
2022/01/15 03:05:40;;;;;;;67.00;53.63;;;16.80;54.50;;;;;;5015896;27;95901;-74
2022/01/15 03:08:06;;;;;;;69.70;54.60;;;16.80;54.40;;;;;;5016120;27;95004;-73
2022/01/15 03:10:32;;;;;;;69.80;54.53;;;16.80;54.60;;;;;;5011660;27;97830;-74
2022/01/15 03:12:58;;;;;;;70.45;55.40;;;16.80;54.80;;;;;;4993658;27;101735;-73
2022/01/15 03:15:24;;;;;;;69.15;54.70;;;16.80;54.70;;;;;;5013676;27;96015;-74
2022/01/15 03:17:50;;;;;;;69.55;54.47;;;16.80;54.30;;;;;;5010564;27;100314;-74
2022/01/15 03:20:18;;;;;;;68.63;54.58;;;16.80;54.40;;;;;;5011271;27;100610;-74
2022/01/15 03:22:44;;;;;;;69.30;55.38;;;16.80;54.30;;;;;;5015668;27;95714;-74
2022/01/15 03:25:10;;;;;;;69.30;54.88;;;16.80;54.70;;;;;;5010573;27;96186;-74
2022/01/15 03:27:37;;;;;;;67.05;53.92;;;16.80;54.50;;;;;;5019416;27;96955;-74
2022/01/15 03:30:06;;;;;;;72.28;56.60;;;16.80;54.50;;;;;;5016217;27;96000;-73
2022/01/15 03:32:31;;;;;;;69.65;54.65;;;16.80;54.60;;;;;;5009908;27;95214;-73
2022/01/15 03:34:57;;;;;;;67.53;53.88;;;16.80;54.70;;;;;;5004054;27;95200;-74
2022/01/15 03:37:23;;;;;;;67.90;54.47;;;16.80;54.60;;;;;;5011589;27;96103;-74
2022/01/15 03:39:48;;;;;;;68.35;54.95;;;16.70;54.60;;;;;;5013771;27;96802;-73
2022/01/15 03:42:14;;;;;;;69.90;55.15;;;16.80;54.90;;;;;;5011015;27;95210;-74
2022/01/15 03:44:45;;;;;;;67.32;54.13;;;16.80;54.80;;;;;;4998243;27;100309;-74
2022/01/15 03:47:12;;;;;;;68.95;53.85;;;16.80;54.30;;;;;;270154;28;10119170;-73
2022/01/15 03:49:39;;;;;;;69.97;54.72;;;16.70;54.20;;;;;;5013934;27;94977;-74
2022/01/15 03:52:06;;;;;;;69.18;54.90;;;16.70;54.70;;;;;;5008482;27;95145;-73
2022/01/15 03:54:31;;;;;;;69.32;53.55;;;16.70;54.80;;;;;;5014457;27;96529;-73
2022/01/15 03:56:57;;;;;;;71.22;55.03;;;16.70;54.30;;;;;;5010298;27;94260;-74
2022/01/15 03:59:23;;;;;;;68.45;54.30;;;16.70;54.60;;;;;;5004403;27;101284;-73
2022/01/15 04:01:49;;;;;;;67.97;53.88;;;16.80;54.50;;;;;;5013544;27;95882;-73
2022/01/15 04:04:15;;;;;;;71.60;55.00;;;16.70;54.40;;;;;;5013846;27;102055;-73
2022/01/15 04:06:41;;;;;;;69.65;54.30;;;16.70;54.60;;;;;;4991100;27;96352;-73
2022/01/15 04:09:08;;;;;;;71.65;55.10;;;16.70;54.30;;;;;;4992917;27;96235;-74
2022/01/15 04:11:34;;;;;;;68.75;53.63;;;16.80;54.80;;;;;;5010479;27;96059;-74
2022/01/15 04:14:00;;;;;;;70.20;54.72;;;16.70;54.40;;;;;;5015223;27;95376;-73
2022/01/15 04:16:28;;;;;;;68.68;54.50;;;16.70;54.40;;;;;;5012059;27;95582;-73
2022/01/15 04:18:54;;;;;;;68.03;53.95;;;16.70;54.70;;;;;;5002873;27;97649;-74
2022/01/15 04:21:19;;;;;;;69.05;53.65;;;16.70;54.50;;;;;;5016629;27;102131;-73
2022/01/15 04:23:45;;;;;;;67.97;54.45;;;16.70;54.20;;;;;;5009127;27;94951;-73
2022/01/15 04:26:11;;;;;;;69.85;54.10;;;16.70;54.60;;;;;;5012345;27;95200;-74
2022/01/15 04:28:37;;;;;;;70.18;54.13;;;16.70;54.30;;;;;;5010268;27;97291;-73
2022/01/15 04:31:06;;;;;;;69.40;54.85;;;16.70;54.40;;;;;;5013619;27;100228;-74
2022/01/15 04:33:37;;;;;;;68.07;53.63;;;16.70;54.80;;;;;;5011240;27;95325;-74
2022/01/15 04:36:04;;;;;;;68.38;54.35;;;16.70;54.60;;;;;;5014143;27;95584;-73
2022/01/15 04:38:32;;;;;;;67.93;53.92;;;16.70;54.30;;;;;;4990068;28;96973;-73
2022/01/15 04:40:58;;;;;;;68.13;53.58;;;16.70;54.40;;;;;;5013710;27;94922;-73
2022/01/15 04:43:24;;;;;;;69.60;54.75;;;16.70;54.60;;;;;;5010980;27;96149;-73
2022/01/15 04:45:49;;;;;;;66.93;53.05;;;16.60;54.60;;;;;;5011928;27;94166;-73
2022/01/15 04:48:15;;;;;;;69.75;53.97;;;16.60;54.70;;;;;;5007205;27;98134;-73
2022/01/15 04:50:41;;;;;;;67.22;53.60;;;16.70;54.50;;;;;;5005471;27;95521;-73
2022/01/15 04:53:08;;;;;;;70.20;54.30;;;16.80;54.70;;;;;;5011422;27;96436;-73
2022/01/15 04:55:35;;;;;;;68.97;54.38;;;16.80;54.60;;;;;;5004606;27;99689;-73
2022/01/15 04:58:00;;;;;;;68.93;54.10;;;17.00;54.30;;;;;;5006709;27;96671;-73
2022/01/15 05:00:26;;;;;;;70.13;54.30;;;17.10;54.20;;;;;;5004750;27;100311;-73
2022/01/15 05:02:51;;;;;;;68.38;54.00;;;17.20;54.00;;;;;;5005864;27;95647;-73
2022/01/15 05:05:17;;;;;;;69.15;53.88;;;17.40;53.80;;;;;;5010198;27;96915;-73
2022/01/15 05:07:43;;;;;;;69.93;54.00;;;17.50;53.90;;;;;;5010332;27;95004;-73
2022/01/15 05:10:11;;;;;;;70.32;54.28;;;17.70;53.50;;;;;;4989182;28;96936;-73
2022/01/15 05:12:44;;;;;;;74.85;55.20;;;17.80;53.40;;;;;;5014750;27;95115;-73
2022/01/15 05:15:12;;;;;;;71.85;54.03;;;18.00;53.20;;;;;;5012626;27;95640;-73
2022/01/15 05:17:38;;;;;;;69.07;54.05;;;18.20;52.80;;;;;;5011968;27;97283;-73
2022/01/15 05:20:05;;;;;;;68.88;53.85;;;18.30;52.60;;;;;;4999702;27;96535;-73
2022/01/15 05:22:32;;;;;;;69.70;53.92;;;18.40;52.00;;;;;;5011786;27;95555;-73
2022/01/15 05:24:57;;;;;;;73.53;54.78;;;18.60;51.80;;;;;;5007001;27;96497;-73
2022/01/15 05:27:23;;;;;;;69.80;53.92;;;18.60;52.00;;;;;;4987081;27;97319;-73
2022/01/15 05:29:48;;;;;;;70.80;53.80;;;18.70;51.70;;;;;;5012090;27;94831;-73
2022/01/15 05:32:14;;;;;;;68.43;53.50;;;18.80;51.20;;;;;;5006662;27;95205;-73
2022/01/15 05:34:40;;;;;;;69.25;53.92;;;18.90;51.00;;;;;;5002059;27;94264;-73
2022/01/15 05:37:05;;;;;;;70.57;54.40;;;18.90;50.80;;;;;;5011912;27;97228;-73
2022/01/15 05:39:31;;;;;;;70.60;54.13;;;18.90;50.70;;;;;;4988974;27;100701;-73
2022/01/15 05:41:57;;;;;;;71.40;54.40;;;18.90;50.70;;;;;;5010261;27;96604;-73
2022/01/15 05:44:23;;;;;;;71.05;53.92;;;19.00;50.60;;;;;;5012753;27;95369;-73
2022/01/15 05:46:48;;;;;;;68.75;53.53;;;19.00;50.50;;;;;;5011687;27;94787;-73
2022/01/15 05:49:14;;;;;;;68.22;53.63;;;19.10;50.30;;;;;;5013762;27;95063;-73
2022/01/15 05:51:40;;;;;;;69.00;54.22;;;19.10;50.00;;;;;;5008515;27;95719;-73
2022/01/15 05:54:10;;;;;;;70.30;54.20;;;19.00;50.00;;;;;;5014763;27;96134;-73
2022/01/15 05:56:37;;;;;;;69.70;54.22;;;19.00;49.90;;;;;;5000296;27;96911;-73
2022/01/15 05:59:04;;;;;;;69.45;53.63;;;19.00;50.10;;;;;;5013088;27;95096;-73
2022/01/15 06:01:29;;;;;;;70.43;54.63;;;19.00;49.90;;;;;;5014915;27;95578;-73
2022/01/15 06:03:55;;;;;;;68.07;53.65;;;19.00;49.80;;;;;;5008436;27;96328;-73
2022/01/15 06:06:21;;;;;;;68.95;53.88;;;18.90;49.70;;;;;;5002935;27;97036;-73
2022/01/15 06:08:47;;;;;;;69.05;53.92;;;18.90;49.60;;;;;;5002889;27;95841;-73
2022/01/15 06:11:17;;;;;;;69.70;54.25;;;18.90;49.80;;;;;;4987469;27;96016;-73
2022/01/15 06:13:44;;;;;;;70.00;53.75;;;18.90;49.60;;;;;;5017060;27;94755;-73
2022/01/15 06:16:10;;;;;;;69.05;54.05;;;18.90;49.60;;;;;;5007158;27;95527;-72
2022/01/15 06:18:36;;;;;;;70.53;53.90;;;18.80;49.60;;;;;;5007582;27;95505;-72
2022/01/15 06:21:02;;;;;;;71.00;53.97;;;18.80;49.50;;;;;;5000168;27;96412;-72
2022/01/15 06:23:28;;;;;;;70.60;54.47;;;18.80;49.50;;;;;;5009163;27;94529;-73
2022/01/15 06:25:54;;;;;;;69.90;54.30;;;18.80;49.70;;;;;;5008766;27;96223;-73
2022/01/15 06:28:20;;;;;;;69.70;53.80;;;18.70;49.60;;;;;;5003514;27;95380;-72
2022/01/15 06:30:45;;;;;;;71.30;54.33;;;18.70;49.90;;;;;;4994361;27;96616;-73
2022/01/15 06:33:11;;;;;;;70.72;53.83;;;18.60;49.80;;;;;;5005646;27;101819;-73
2022/01/15 06:35:36;;;;;;;72.43;54.25;;;18.60;49.90;;;;;;5002426;27;95412;-73
2022/01/15 06:38:02;;;;;;;68.90;54.20;;;18.60;50.00;;;;;;5002718;27;95435;-72
2022/01/15 06:40:28;;;;;;;68.88;53.95;;;18.60;49.90;;;;;;5012836;27;94950;-72
2022/01/15 06:42:53;;;;;;;68.20;53.70;;;18.60;50.00;;;;;;5015294;27;95036;-72
2022/01/15 06:45:19;;;;;;;72.57;54.35;;;18.50;50.10;;;;;;5008518;27;95583;-72
2022/01/15 06:47:45;;;;;;;70.32;54.33;;;18.50;50.00;;;;;;5007280;27;95332;-72
2022/01/15 06:50:15;;;;;;;69.03;53.35;;;18.40;50.00;;;;;;4713599;27;10000913;-73
2022/01/15 06:52:40;;;;;;;69.40;54.07;;;18.40;50.00;;;;;;651902;27;10098991;-73
2022/01/15 06:55:08;;;;;;;70.60;53.72;;;18.30;50.20;;;;;;4991423;27;95946;-72
2022/01/15 06:57:34;;;;;;;70.10;53.83;;;18.30;50.00;;;;;;5005144;27;97820;-72
2022/01/15 07:00:01;;;;;;;71.03;54.20;;;18.20;50.30;;;;;;5010557;27;95165;-72
2022/01/15 07:02:27;;;;;;;68.20;53.85;;;18.20;50.30;;;;;;5013152;27;94983;-72
2022/01/15 07:04:52;;;;;;;67.63;53.42;;;18.20;50.10;;;;;;5008967;27;95914;-72
2022/01/15 07:07:18;;;;;;;68.75;53.92;;;18.10;50.80;;;;;;4997762;27;99867;-71
2022/01/15 07:09:44;;;;;;;70.90;53.97;;;18.10;50.30;;;;;;5005559;27;95517;-72
2022/01/15 07:12:10;;;;;;;74.07;54.67;;;18.10;50.50;;;;;;5008479;27;95022;-72
2022/01/15 07:14:36;;;;;;;70.93;53.95;;;18.00;50.60;;;;;;4994450;27;96856;-73
2022/01/15 07:17:02;;;;;;;67.07;53.22;;;18.00;50.60;;;;;;5002090;27;100281;-72
2022/01/15 07:19:28;;;;;;;70.03;53.47;;;18.00;50.60;;;;;;5002853;27;100585;-72
2022/01/15 07:21:54;;;;;;;68.85;53.78;;;17.90;50.60;;;;;;4985972;27;95050;-72
2022/01/15 07:24:19;;;;;;;69.30;53.50;;;17.90;50.60;;;;;;5011764;27;95679;-72
2022/01/15 07:26:45;;;;;;;72.38;53.45;;;18.00;51.40;;;;;;5013138;27;95389;-72
2022/01/15 07:29:15;;;;;;;70.03;54.13;;;18.00;50.50;;;;;;5009058;27;96492;-72
2022/01/15 07:31:42;;;;;;;70.32;54.05;;;18.00;50.70;;;;;;4986618;27;96021;-72
2022/01/15 07:34:09;;;;;;;68.57;53.22;;;18.10;50.60;;;;;;5012942;27;95965;-72
2022/01/15 07:36:34;;;;;;;69.53;53.67;;;18.10;50.40;;;;;;4993829;27;97731;-72
2022/01/15 07:39:00;;;;;;;72.18;53.83;;;18.10;50.60;;;;;;5008844;27;95522;-73
2022/01/15 07:41:26;;;;;;;68.63;53.88;;;18.10;50.50;;;;;;5002771;27;95525;-72
2022/01/15 07:43:52;;;;;;;66.82;53.00;;;18.20;50.40;;;;;;5009303;27;96258;-72
2022/01/15 07:46:17;;;;;;;70.22;53.70;;;18.20;50.40;;;;;;5007967;27;95858;-72
2022/01/15 07:48:43;;;;;;;68.80;53.03;;;18.20;50.20;;;;;;5006822;27;97184;-72
2022/01/15 07:51:09;;;;;;;67.53;53.15;;;18.20;50.30;;;;;;5008821;27;96676;-72
2022/01/15 07:53:34;;;;;;;68.47;53.72;;;18.20;50.40;;;;;;5004049;27;96973;-72
2022/01/15 07:56:00;;;;;;;69.65;54.10;;;18.20;50.30;;;;;;5016129;27;95857;-72
2022/01/15 07:58:26;;;;;;;68.72;53.60;;;18.20;50.30;;;;;;5012776;27;95575;-72
2022/01/15 08:00:51;;;;;;;68.10;53.03;;;18.20;50.10;;;;;;5004335;27;95924;-72
2022/01/15 08:03:17;;;;;;;71.50;53.17;;;18.20;50.10;;;;;;5002265;27;101463;-72
2022/01/15 08:05:43;;;;;;;66.70;52.63;;;18.10;50.20;;;;;;5005492;27;96272;-72
2022/01/15 08:08:09;;;;;;;69.95;53.55;;;18.10;50.20;;;;;;5015826;27;96239;-72
2022/01/15 08:10:35;;;;;;;67.03;52.95;;;18.10;50.20;;;;;;5011645;27;94963;-72
2022/01/15 08:13:01;;;;;;;66.90;52.85;;;18.00;50.30;;;;;;5008830;27;95525;-72
2022/01/15 08:15:31;;;;;;;65.80;52.63;;;18.10;50.30;;;;;;5009678;27;96137;-72
2022/01/15 08:17:57;;;;;;;66.78;52.65;;;18.00;50.30;;;;;;4979684;27;95813;-72
2022/01/15 08:20:23;;;;;;;67.70;52.78;;;18.00;50.40;;;;;;4991366;27;96954;-72
2022/01/15 08:22:51;;;;;;;68.32;53.40;;;18.10;50.20;;;;;;5017150;27;95283;-72
2022/01/15 08:25:17;;;;;;;66.82;52.63;;;18.10;50.10;;;;;;5002819;27;96352;-72
2022/01/15 08:27:43;;;;;;;67.03;52.47;;;18.10;50.20;;;;;;5009584;27;95102;-72
2022/01/15 08:30:09;;;;;;;66.60;53.03;;;18.20;50.20;;;;;;5005080;27;94712;-72
2022/01/15 08:32:35;;;;;;;68.50;52.55;;;18.20;50.10;;;;;;5012037;27;95693;-72
2022/01/15 08:35:02;;;;;;;68.65;52.83;;;18.30;49.90;;;;;;5002505;27;95822;-72
2022/01/15 08:37:27;;;;;;;67.72;53.05;;;18.40;49.90;;;;;;4998682;27;96117;-69
2022/01/15 08:39:53;;;;;;;68.13;53.22;;;18.40;49.80;;;;;;4981443;27;101351;-69
2022/01/15 08:42:19;;;;;;;69.18;53.35;;;18.50;49.80;;;;;;5001965;27;94803;-69
2022/01/15 08:44:45;;;;;;;65.30;52.47;;;18.60;49.80;;;;;;4999883;27;100290;-69
2022/01/15 08:47:12;;;;;;;65.47;52.95;;;18.60;49.80;;;;;;4989425;27;96114;-70
2022/01/15 08:49:39;;;;;;;69.38;52.88;;;18.70;49.20;;;;;;5004084;27;101613;-69
2022/01/15 08:52:05;;;;;;;68.13;52.85;;;18.60;49.10;;;;;;4979036;27;95815;-70
2022/01/15 08:54:31;;;;;;;66.93;52.53;;;18.70;49.30;;;;;;5004027;27;96150;-70
2022/01/15 08:56:57;;;;;;;66.57;52.88;;;18.70;49.40;;;;;;5003889;27;96431;-70
2022/01/15 08:59:27;;;;;;;68.18;52.72;;;18.70;49.20;;;;;;4996891;27;95377;-73
2022/01/15 09:01:56;;;;;;;68.13;53.13;;;18.70;49.30;;;;;;5004909;27;94755;-70
2022/01/15 09:04:22;;;;;;;67.65;52.67;;;18.70;49.20;;;;;;5001488;27;99637;-73
2022/01/15 09:06:49;;;;;;;69.70;53.28;;;18.80;49.30;;;;;;4999489;27;100981;-72
2022/01/15 09:09:14;;;;;;;67.28;52.55;;;18.70;49.00;;;;;;5002991;27;96435;-72
2022/01/15 09:11:40;;;;;;;68.30;53.05;;;18.70;49.20;;;;;;5003408;27;96726;-72
2022/01/15 09:14:06;;;;;;;67.65;52.70;;;18.70;49.30;;;;;;4993936;27;95888;-72
2022/01/15 09:16:32;;;;;;;66.93;53.08;;;18.70;49.30;;;;;;5007009;27;95697;-74
2022/01/15 09:18:58;;;;;;;66.88;52.67;;;18.70;49.40;;;;;;5003535;27;95783;-72
2022/01/15 09:21:24;;;;;;;69.50;53.28;;;18.60;49.50;;;;;;5008705;27;97345;-71
2022/01/15 09:23:51;;;;;;;66.95;52.58;;;18.60;49.40;;;;;;4994862;27;96864;-71
2022/01/15 09:26:23;;;;;;;69.88;52.58;;;18.60;49.50;;;;;;4976879;27;96757;-72
2022/01/15 09:31:35;;;;;;;66.70;53.20;;;18.50;49.70;;;;;;4991918;28;95297;-71
2022/01/15 09:34:02;;;;;;;72.05;55.40;;;18.50;50.50;;;;;;4989397;28;95549;-73
2022/01/15 09:36:28;;;;;;;74.57;56.50;;;18.40;50.50;;;;;;4955634;28;97440;-74
2022/01/15 09:38:53;;;;;;;76.45;57.83;;;18.40;50.80;;;;;;4975643;28;94651;-73
2022/01/15 09:41:20;;;;;;;76.22;57.08;;;18.30;51.20;;;;;;4968787;28;96542;-71
2022/01/15 09:43:48;;;;;;;81.65;57.97;;;18.20;51.10;;;;;;4979962;28;95547;-70
2022/01/15 09:46:18;;;;;;;80.57;58.60;;;18.10;51.10;;;;;;4988483;28;96427;-71
2022/01/15 09:48:50;;;;;;;80.32;57.53;;;18.10;51.30;;;;;;4988458;28;97519;-74
2022/01/15 09:51:16;;;;;;;75.00;56.95;;;18.10;51.00;;;;;;4976489;28;95123;-71
2022/01/15 09:53:42;;;;;;;77.93;56.85;;;18.20;51.20;;;;;;4999428;28;96222;-72
2022/01/15 09:56:09;;;;;;;75.40;56.60;;;18.30;51.10;;;;;;4977514;28;94939;-71
2022/01/15 09:58:35;;;;;;;76.93;56.35;;;18.40;50.90;;;;;;5001846;28;95197;-73
2022/01/15 10:01:01;;;;;;;73.40;56.70;;;18.50;50.70;;;;;;4989256;28;94810;-74
2022/01/15 10:03:27;;;;;;;71.65;55.85;;;18.50;50.70;;;;;;4995262;28;94487;-71
2022/01/15 10:05:53;;;;;;;76.03;56.40;;;18.60;50.50;;;;;;4990974;28;95238;-70
2022/01/15 10:08:20;;;;;;;72.30;55.83;;;18.70;50.40;;;;;;4984522;28;95185;-68
2022/01/15 10:10:53;;;;;;;74.43;55.10;;;18.70;50.20;;;;;;4985731;28;96196;-70
2022/01/15 10:13:24;;;;;;;71.78;55.17;;;18.80;50.00;;;;;;4986548;28;95413;-67
2022/01/15 10:16:11;;;;;;;75.53;56.15;;;18.80;50.00;;;;;;4985226;28;96573;-67
2022/01/15 10:18:45;;;;;;;74.28;56.08;;;18.80;49.80;;;;;;4989847;28;95804;-70
2022/01/15 10:21:16;;;;;;;73.88;55.85;;;18.80;50.10;;;;;;4982321;28;97028;-70
2022/01/15 10:23:50;;;;;;;73.10;55.58;;;18.80;49.80;;;;;;4955015;28;95982;-69
2022/01/15 10:26:19;;;;;;;71.40;55.67;;;18.80;49.80;;;;;;4983751;28;95553;-70
2022/01/15 10:28:49;;;;;;;70.47;55.22;;;18.80;49.90;;;;;;4985976;27;96334;-71
2022/01/15 10:31:24;;;;;;;71.88;55.25;;;18.80;49.70;;;;;;4991222;27;95584;-70
2022/01/15 10:33:51;;;;;;;71.38;55.05;;;18.80;49.90;;;;;;5003772;27;95596;-72
2022/01/15 10:36:25;;;;;;;71.40;55.80;;;18.80;49.80;;;;;;5001025;27;96309;-70
2022/01/15 10:39:20;;;;;;;73.15;55.65;;;18.70;49.70;;;;;;1957893;27;10116729;-70
2022/01/15 10:41:48;;;;;;;72.68;55.53;;;18.80;50.20;;;;;;3609599;27;10097356;-71
2022/01/15 10:44:34;;;;;;;72.97;55.30;;;18.80;50.20;;;;;;4992535;27;96597;-71
2022/01/15 10:47:18;;;;;;;76.25;55.95;;;18.70;50.30;;;;;;5003858;27;95683;-70
2022/01/15 10:49:45;;;;;;;74.13;54.67;;;18.70;50.40;;;;;;4999737;27;95236;-71
2022/01/15 10:52:22;;;;;;;74.70;55.55;;;18.70;50.40;;;;;;5009262;27;95283;-71
2022/01/15 10:54:53;;;;;;;72.03;54.22;;;18.70;50.40;;;;;;5007352;27;94972;-70
2022/01/15 10:57:23;;;;;;;72.97;54.78;;;18.70;50.40;;;;;;5016523;27;95366;-71
2022/01/15 11:00:06;;;;;;;70.55;55.03;;;18.60;50.50;;;;;;4999584;27;95200;-70
2022/01/15 11:02:31;;;;;;;71.80;54.38;;;18.60;51.20;;;;;;4994582;27;95985;-69
2022/01/15 11:04:57;;;;;;;72.55;54.17;;;18.50;50.70;;;;;;5003135;27;96072;-70
2022/01/15 11:07:23;;;;;;;72.65;54.92;;;18.50;50.80;;;;;;5008485;27;95874;-71
2022/01/15 11:09:51;;;;;;;70.07;54.75;;;18.50;50.60;;;;;;5011576;27;95156;-71
2022/01/15 11:12:18;;;;;;;70.30;54.42;;;18.40;50.90;;;;;;4984851;28;95191;-71
2022/01/15 11:14:43;;;;;;;71.70;54.55;;;18.40;50.80;;;;;;5006596;27;95253;-71
2022/01/15 11:17:09;;;;;;;72.50;54.47;;;18.50;50.90;;;;;;5006417;27;95525;-71
2022/01/15 11:19:36;;;;;;;75.65;54.28;;;18.50;50.80;;;;;;4983135;28;94670;-70
2022/01/15 11:22:04;;;;;;;67.18;54.08;;;18.60;51.00;;;;;;5007963;27;94927;-70
2022/01/15 11:24:30;;;;;;;73.60;54.38;;;18.70;51.20;;;;;;5005668;27;95169;-70
2022/01/15 11:26:58;;;;;;;70.88;53.70;;;18.70;51.00;;;;;;5010303;27;96088;-71
2022/01/15 11:29:25;;;;;;;69.82;54.20;;;18.90;50.90;;;;;;5002869;27;95374;-70
2022/01/15 11:31:57;;;;;;;71.97;54.35;;;18.90;50.80;;;;;;5009299;27;95154;-70
2022/01/15 11:34:24;;;;;;;73.13;54.20;;;19.00;50.50;;;;;;5012394;27;96214;-71
2022/01/15 11:36:50;;;;;;;85.78;58.40;;;19.10;50.30;;;;;;4999142;27;97136;-71
2022/01/15 11:39:32;;;;;;;83.47;59.35;;;19.20;51.00;;;;;;5004401;27;95964;-71
2022/01/15 11:42:00;;;;;;;;;;;19.20;50.90;;;;;;5000400;27;95296;-71
2022/01/15 11:44:28;;;;;;;82.25;58.90;;;19.30;51.30;;;;;;4996486;27;99907;-71
2022/01/15 11:46:56;;;;;;;86.35;59.10;;;19.30;51.30;;;;;;4994663;27;97550;-71
2022/01/15 11:49:27;;;;;;;80.13;59.08;;;19.40;51.10;;;;;;4981052;27;100243;-72
2022/01/15 11:52:11;;;;;;;76.70;58.45;;;19.40;50.50;;;;;;5003411;27;100924;-72
2022/01/15 11:55:03;;;;;;;78.22;58.35;;;19.30;50.50;;;;;;5002865;27;95456;-72
2022/01/15 11:57:30;;;;;;;76.82;58.03;;;19.30;50.10;;;;;;4991615;27;95429;-71
2022/01/15 12:00:00;;;;;;;75.78;57.35;;;19.30;50.00;;;;;;5003636;27;95359;-71
2022/01/15 12:02:31;;;;;;;79.80;57.38;;;19.30;49.80;;;;;;5001765;27;95868;-71
2022/01/15 12:05:16;;;;;;;77.88;57.40;;;19.20;49.90;;;;;;4988522;27;96124;-71
2022/01/15 12:08:08;;;;;;;77.05;57.70;;;19.20;50.00;;;;;;5004739;27;95318;-71
2022/01/15 12:10:40;;;;;;;73.07;56.38;;;19.20;50.20;;;;;;4973482;27;95917;-71
2022/01/15 12:13:18;;;;;;;74.03;56.78;;;19.10;49.90;;;;;;4990327;27;98469;-70
2022/01/15 12:15:45;;;;;;;74.13;56.42;;;19.10;50.20;;;;;;5007220;27;98633;-69
2022/01/15 12:18:15;;;;;;;76.03;56.70;;;19.10;50.00;;;;;;4997187;27;99215;-71
2022/01/15 12:20:41;;;;;;;73.55;56.15;;;19.00;49.70;;;;;;5009610;27;95302;-71
2022/01/15 12:23:19;;;;;;;75.82;55.92;;;18.90;50.30;;;;;;4987528;27;95863;-71
2022/01/15 12:25:50;;;;;;;71.63;56.40;;;18.90;50.10;;;;;;5005179;27;96183;-72
2022/01/15 12:28:16;;;;;;;73.90;56.80;;;18.90;50.00;;;;;;4995383;27;97531;-72
2022/01/15 12:30:50;;;;;;;71.13;56.05;;;18.80;50.80;;;;;;5005886;27;95343;-71
2022/01/15 12:33:18;;;;;;;71.75;56.03;;;18.80;50.90;;;;;;5003503;27;95071;-71
2022/01/15 12:35:47;;;;;;;73.53;56.03;;;18.70;51.00;;;;;;5013602;27;95580;-71
2022/01/15 12:38:15;;;;;;;74.75;56.80;;;18.70;51.20;;;;;;4998661;28;95496;-71
2022/01/15 12:40:46;;;;;;;71.90;56.13;;;18.70;51.30;;;;;;5008830;27;95779;-71
2022/01/15 12:43:29;;;;;;;73.75;55.58;;;18.60;51.50;;;;;;4992497;27;97742;-69
2022/01/15 12:46:01;;;;;;;72.93;55.80;;;18.60;51.50;;;;;;5013062;27;95908;-69
2022/01/15 12:48:32;;;;;;;71.95;55.83;;;18.50;51.60;;;;;;5004022;27;95073;-71
2022/01/15 12:51:06;;;;;;;70.22;55.25;;;18.50;51.60;;;;;;5002799;27;98129;-71
2022/01/15 12:53:35;;;;;;;75.10;56.42;;;18.60;51.30;;;;;;5008482;27;95329;-71
2022/01/15 12:56:09;;;;;;;73.25;55.88;;;18.60;51.60;;;;;;4981228;27;98342;-71